sensor_id;sensor_type;location;lat;lon;timestamp;P1;durP1;ratioP1;P2;durP2;ratioP2
21014;SDS011;19207;-23.482;-46.500;2022-09-02T00:02:13;138.18;;;57.25;;
21014;SDS011;19207;-23.482;-46.500;2022-09-02T00:05:03;132.77;;;58.63;;
21014;SDS011;19207;-23.482;-46.500;2022-09-02T00:07:50;150.98;;;52.25;;
21014;SDS011;19207;-23.482;-46.500;2022-09-02T00:10:38;104.65;;;41.10;;
21014;SDS011;19207;-23.482;-46.500;2022-09-02T00:13:25;87.78;;;36.95;;
21014;SDS011;19207;-23.482;-46.500;2022-09-02T00:16:12;69.40;;;30.30;;
21014;SDS011;19207;-23.482;-46.500;2022-09-02T00:19:02;77.82;;;30.12;;
21014;SDS011;19207;-23.482;-46.500;2022-09-02T00:21:48;73.20;;;27.45;;
21014;SDS011;19207;-23.482;-46.500;2022-09-02T00:24:35;60.20;;;23.00;;
21014;SDS011;19207;-23.482;-46.500;2022-09-02T00:27:22;59.70;;;23.35;;
21014;SDS011;19207;-23.482;-46.500;2022-09-02T00:30:09;65.90;;;23.95;;
21014;SDS011;19207;-23.482;-46.500;2022-09-02T00:32:56;71.28;;;24.95;;
21014;SDS011;19207;-23.482;-46.500;2022-09-02T00:35:43;71.37;;;24.25;;
21014;SDS011;19207;-23.482;-46.500;2022-09-02T00:38:30;69.03;;;25.48;;
21014;SDS011;19207;-23.482;-46.500;2022-09-02T00:41:22;66.50;;;25.65;;
21014;SDS011;19207;-23.482;-46.500;2022-09-02T00:44:11;66.53;;;23.95;;
21014;SDS011;19207;-23.482;-46.500;2022-09-02T00:46:59;49.08;;;22.02;;
21014;SDS011;19207;-23.482;-46.500;2022-09-02T00:49:47;57.47;;;20.73;;
21014;SDS011;19207;-23.482;-46.500;2022-09-02T00:52:36;54.70;;;20.67;;
21014;SDS011;19207;-23.482;-46.500;2022-09-02T00:55:24;70.82;;;21.23;;
21014;SDS011;19207;-23.482;-46.500;2022-09-02T00:58:16;54.70;;;21.20;;
21014;SDS011;19207;-23.482;-46.500;2022-09-02T01:01:04;66.72;;;24.08;;
21014;SDS011;19207;-23.482;-46.500;2022-09-02T01:03:51;71.47;;;24.50;;
21014;SDS011;19207;-23.482;-46.500;2022-09-02T01:06:37;68.50;;;25.48;;
21014;SDS011;19207;-23.482;-46.500;2022-09-02T01:09:25;73.20;;;25.48;;
21014;SDS011;19207;-23.482;-46.500;2022-09-02T01:12:11;71.32;;;25.67;;
21014;SDS011;19207;-23.482;-46.500;2022-09-02T01:14:58;72.47;;;23.33;;
21014;SDS011;19207;-23.482;-46.500;2022-09-02T01:17:46;71.35;;;25.50;;
21014;SDS011;19207;-23.482;-46.500;2022-09-02T01:20:33;87.22;;;28.73;;
21014;SDS011;19207;-23.482;-46.500;2022-09-02T01:23:19;83.93;;;30.17;;
21014;SDS011;19207;-23.482;-46.500;2022-09-02T01:26:06;71.37;;;28.67;;
21014;SDS011;19207;-23.482;-46.500;2022-09-02T01:28:52;81.72;;;32.72;;
21014;SDS011;19207;-23.482;-46.500;2022-09-02T01:31:39;107.65;;;39.28;;
21014;SDS011;19207;-23.482;-46.500;2022-09-02T01:34:26;133.55;;;46.95;;
21014;SDS011;19207;-23.482;-46.500;2022-09-02T01:37:13;110.53;;;42.90;;
21014;SDS011;19207;-23.482;-46.500;2022-09-02T01:40:00;112.35;;;40.47;;
21014;SDS011;19207;-23.482;-46.500;2022-09-02T01:42:47;89.97;;;35.08;;
21014;SDS011;19207;-23.482;-46.500;2022-09-02T01:45:38;82.78;;;33.22;;
21014;SDS011;19207;-23.482;-46.500;2022-09-02T01:48:25;83.53;;;32.80;;
21014;SDS011;19207;-23.482;-46.500;2022-09-02T01:51:14;92.12;;;31.05;;
21014;SDS011;19207;-23.482;-46.500;2022-09-02T01:54:01;71.12;;;26.15;;
21014;SDS011;19207;-23.482;-46.500;2022-09-02T01:56:48;76.15;;;27.50;;
21014;SDS011;19207;-23.482;-46.500;2022-09-02T01:59:34;70.50;;;28.10;;
21014;SDS011;19207;-23.482;-46.500;2022-09-02T02:02:21;73.75;;;24.77;;
21014;SDS011;19207;-23.482;-46.500;2022-09-02T02:05:08;67.85;;;23.87;;
21014;SDS011;19207;-23.482;-46.500;2022-09-02T02:07:55;62.80;;;22.73;;
21014;SDS011;19207;-23.482;-46.500;2022-09-02T02:10:41;67.03;;;21.05;;
21014;SDS011;19207;-23.482;-46.500;2022-09-02T02:13:29;63.47;;;20.75;;
21014;SDS011;19207;-23.482;-46.500;2022-09-02T02:16:15;53.87;;;19.20;;
21014;SDS011;19207;-23.482;-46.500;2022-09-02T02:19:03;50.53;;;18.37;;
21014;SDS011;19207;-23.482;-46.500;2022-09-02T02:21:50;60.55;;;18.08;;
21014;SDS011;19207;-23.482;-46.500;2022-09-02T02:24:37;49.90;;;19.35;;
21014;SDS011;19207;-23.482;-46.500;2022-09-02T02:27:23;63.22;;;18.40;;
21014;SDS011;19207;-23.482;-46.500;2022-09-02T02:30:13;50.88;;;17.77;;
21014;SDS011;19207;-23.482;-46.500;2022-09-02T02:32:59;54.17;;;17.45;;
21014;SDS011;19207;-23.482;-46.500;2022-09-02T02:35:46;50.05;;;18.27;;
21014;SDS011;19207;-23.482;-46.500;2022-09-02T02:38:33;43.33;;;16.67;;
21014;SDS011;19207;-23.482;-46.500;2022-09-02T02:41:20;60.03;;;17.45;;
21014;SDS011;19207;-23.482;-46.500;2022-09-02T02:44:07;44.80;;;18.45;;
21014;SDS011;19207;-23.482;-46.500;2022-09-02T02:46:54;59.42;;;19.12;;
21014;SDS011;19207;-23.482;-46.500;2022-09-02T02:49:42;52.20;;;19.02;;
21014;SDS011;19207;-23.482;-46.500;2022-09-02T02:52:29;46.10;;;18.42;;
21014;SDS011;19207;-23.482;-46.500;2022-09-02T02:55:15;61.13;;;19.10;;
21014;SDS011;19207;-23.482;-46.500;2022-09-02T02:58:02;63.53;;;19.67;;
21014;SDS011;19207;-23.482;-46.500;2022-09-02T03:00:49;60.05;;;20.10;;
21014;SDS011;19207;-23.482;-46.500;2022-09-02T03:03:35;69.25;;;21.80;;
21014;SDS011;19207;-23.482;-46.500;2022-09-02T03:06:22;60.35;;;23.60;;
21014;SDS011;19207;-23.482;-46.500;2022-09-02T03:09:08;70.75;;;24.17;;
21014;SDS011;19207;-23.482;-46.500;2022-09-02T03:11:55;67.37;;;25.25;;
21014;SDS011;19207;-23.482;-46.500;2022-09-02T03:14:42;71.57;;;26.40;;
21014;SDS011;19207;-23.482;-46.500;2022-09-02T03:17:29;64.00;;;25.48;;
21014;SDS011;19207;-23.482;-46.500;2022-09-02T03:20:16;74.15;;;25.05;;
21014;SDS011;19207;-23.482;-46.500;2022-09-02T03:23:04;62.03;;;23.00;;
21014;SDS011;19207;-23.482;-46.500;2022-09-02T03:25:50;76.25;;;24.52;;
21014;SDS011;19207;-23.482;-46.500;2022-09-02T03:28:38;80.75;;;25.42;;
21014;SDS011;19207;-23.482;-46.500;2022-09-02T03:31:25;74.35;;;24.33;;
21014;SDS011;19207;-23.482;-46.500;2022-09-02T03:34:12;61.47;;;23.48;;
21014;SDS011;19207;-23.482;-46.500;2022-09-02T03:36:58;74.32;;;25.33;;
21014;SDS011;19207;-23.482;-46.500;2022-09-02T03:39:45;73.70;;;26.30;;
21014;SDS011;19207;-23.482;-46.500;2022-09-02T03:42:32;71.40;;;26.98;;
21014;SDS011;19207;-23.482;-46.500;2022-09-02T03:45:19;63.53;;;25.52;;
21014;SDS011;19207;-23.482;-46.500;2022-09-02T03:48:07;69.30;;;24.15;;
21014;SDS011;19207;-23.482;-46.500;2022-09-02T03:50:53;71.78;;;26.25;;
21014;SDS011;19207;-23.482;-46.500;2022-09-02T03:53:40;68.55;;;22.95;;
21014;SDS011;19207;-23.482;-46.500;2022-09-02T03:56:27;66.70;;;22.80;;
21014;SDS011;19207;-23.482;-46.500;2022-09-02T03:59:13;62.53;;;21.42;;
21014;SDS011;19207;-23.482;-46.500;2022-09-02T04:02:01;57.28;;;20.48;;
21014;SDS011;19207;-23.482;-46.500;2022-09-02T04:04:48;74.03;;;30.37;;
21014;SDS011;19207;-23.482;-46.500;2022-09-02T04:07:34;104.05;;;42.67;;
21014;SDS011;19207;-23.482;-46.500;2022-09-02T04:10:21;106.95;;;44.42;;
21014;SDS011;19207;-23.482;-46.500;2022-09-02T04:13:08;96.60;;;38.35;;
21014;SDS011;19207;-23.482;-46.500;2022-09-02T04:15:55;83.70;;;35.47;;
21014;SDS011;19207;-23.482;-46.500;2022-09-02T04:18:42;91.85;;;34.67;;
21014;SDS011;19207;-23.482;-46.500;2022-09-02T04:21:30;95.78;;;35.00;;
21014;SDS011;19207;-23.482;-46.500;2022-09-02T04:24:17;93.62;;;34.67;;
21014;SDS011;19207;-23.482;-46.500;2022-09-02T04:27:04;77.32;;;31.48;;
21014;SDS011;19207;-23.482;-46.500;2022-09-02T04:29:51;86.57;;;29.92;;
21014;SDS011;19207;-23.482;-46.500;2022-09-02T04:32:38;95.97;;;31.40;;
21014;SDS011;19207;-23.482;-46.500;2022-09-02T04:35:24;73.65;;;28.20;;
21014;SDS011;19207;-23.482;-46.500;2022-09-02T04:38:11;71.75;;;27.80;;
21014;SDS011;19207;-23.482;-46.500;2022-09-02T04:40:58;69.32;;;27.10;;
21014;SDS011;19207;-23.482;-46.500;2022-09-02T04:43:45;70.47;;;25.70;;
21014;SDS011;19207;-23.482;-46.500;2022-09-02T04:46:32;65.57;;;26.23;;
21014;SDS011;19207;-23.482;-46.500;2022-09-02T04:49:19;80.43;;;25.30;;
21014;SDS011;19207;-23.482;-46.500;2022-09-02T04:52:06;71.93;;;23.50;;
21014;SDS011;19207;-23.482;-46.500;2022-09-02T04:54:54;75.28;;;28.02;;
21014;SDS011;19207;-23.482;-46.500;2022-09-02T04:57:41;63.70;;;24.15;;
21014;SDS011;19207;-23.482;-46.500;2022-09-02T05:00:28;78.10;;;25.05;;
21014;SDS011;19207;-23.482;-46.500;2022-09-02T05:03:15;74.43;;;23.73;;
21014;SDS011;19207;-23.482;-46.500;2022-09-02T05:06:05;85.32;;;25.58;;
21014;SDS011;19207;-23.482;-46.500;2022-09-02T05:08:54;86.20;;;24.65;;
21014;SDS011;19207;-23.482;-46.500;2022-09-02T05:11:42;83.87;;;26.70;;
21014;SDS011;19207;-23.482;-46.500;2022-09-02T05:14:29;75.37;;;25.20;;
21014;SDS011;19207;-23.482;-46.500;2022-09-02T05:17:17;87.65;;;25.40;;
21014;SDS011;19207;-23.482;-46.500;2022-09-02T05:20:05;82.45;;;26.33;;
21014;SDS011;19207;-23.482;-46.500;2022-09-02T05:22:51;88.53;;;25.80;;
21014;SDS011;19207;-23.482;-46.500;2022-09-02T05:25:38;89.62;;;25.95;;
21014;SDS011;19207;-23.482;-46.500;2022-09-02T05:28:25;85.55;;;27.08;;
21014;SDS011;19207;-23.482;-46.500;2022-09-02T05:31:13;83.12;;;27.23;;
21014;SDS011;19207;-23.482;-46.500;2022-09-02T05:34:01;78.05;;;26.90;;
21014;SDS011;19207;-23.482;-46.500;2022-09-02T05:36:48;93.78;;;28.83;;
21014;SDS011;19207;-23.482;-46.500;2022-09-02T05:39:34;101.25;;;29.35;;
21014;SDS011;19207;-23.482;-46.500;2022-09-02T05:42:21;87.65;;;29.17;;
21014;SDS011;19207;-23.482;-46.500;2022-09-02T05:45:09;82.15;;;29.02;;
21014;SDS011;19207;-23.482;-46.500;2022-09-02T05:47:57;93.87;;;30.40;;
21014;SDS011;19207;-23.482;-46.500;2022-09-02T05:50:44;85.40;;;30.37;;
21014;SDS011;19207;-23.482;-46.500;2022-09-02T05:53:31;95.50;;;31.27;;
21014;SDS011;19207;-23.482;-46.500;2022-09-02T05:56:18;95.75;;;31.65;;
21014;SDS011;19207;-23.482;-46.500;2022-09-02T05:59:04;95.40;;;33.15;;
21014;SDS011;19207;-23.482;-46.500;2022-09-02T06:01:52;98.65;;;32.53;;
21014;SDS011;19207;-23.482;-46.500;2022-09-02T06:04:39;88.05;;;32.45;;
21014;SDS011;19207;-23.482;-46.500;2022-09-02T06:07:26;94.50;;;32.63;;
21014;SDS011;19207;-23.482;-46.500;2022-09-02T06:10:13;91.70;;;33.47;;
21014;SDS011;19207;-23.482;-46.500;2022-09-02T06:13:00;97.57;;;33.78;;
21014;SDS011;19207;-23.482;-46.500;2022-09-02T06:15:47;99.10;;;34.38;;
21014;SDS011;19207;-23.482;-46.500;2022-09-02T06:18:34;115.43;;;34.53;;
21014;SDS011;19207;-23.482;-46.500;2022-09-02T06:21:21;95.38;;;33.83;;
21014;SDS011;19207;-23.482;-46.500;2022-09-02T06:24:09;102.22;;;34.53;;
21014;SDS011;19207;-23.482;-46.500;2022-09-02T06:26:56;116.85;;;35.97;;
21014;SDS011;19207;-23.482;-46.500;2022-09-02T06:29:43;108.15;;;35.95;;
21014;SDS011;19207;-23.482;-46.500;2022-09-02T06:32:30;109.05;;;37.92;;
21014;SDS011;19207;-23.482;-46.500;2022-09-02T06:35:17;103.47;;;36.13;;
21014;SDS011;19207;-23.482;-46.500;2022-09-02T06:38:03;121.30;;;37.47;;
21014;SDS011;19207;-23.482;-46.500;2022-09-02T06:40:51;112.68;;;35.65;;
21014;SDS011;19207;-23.482;-46.500;2022-09-02T06:43:39;96.72;;;33.20;;
21014;SDS011;19207;-23.482;-46.500;2022-09-02T06:46:29;95.62;;;31.40;;
21014;SDS011;19207;-23.482;-46.500;2022-09-02T06:49:17;104.50;;;31.95;;
21014;SDS011;19207;-23.482;-46.500;2022-09-02T06:52:04;100.65;;;29.15;;
21014;SDS011;19207;-23.482;-46.500;2022-09-02T06:54:51;107.43;;;28.80;;
21014;SDS011;19207;-23.482;-46.500;2022-09-02T06:57:38;105.18;;;28.17;;
21014;SDS011;19207;-23.482;-46.500;2022-09-02T07:00:25;106.85;;;29.67;;
21014;SDS011;19207;-23.482;-46.500;2022-09-02T07:03:12;101.70;;;28.52;;
21014;SDS011;19207;-23.482;-46.500;2022-09-02T07:06:17;106.75;;;29.70;;
21014;SDS011;19207;-23.482;-46.500;2022-09-02T07:09:04;90.87;;;27.75;;
21014;SDS011;19207;-23.482;-46.500;2022-09-02T07:11:51;98.40;;;29.00;;
21014;SDS011;19207;-23.482;-46.500;2022-09-02T07:14:40;94.68;;;28.85;;
21014;SDS011;19207;-23.482;-46.500;2022-09-02T07:17:28;102.82;;;31.67;;
21014;SDS011;19207;-23.482;-46.500;2022-09-02T07:20:15;104.68;;;31.10;;
21014;SDS011;19207;-23.482;-46.500;2022-09-02T07:23:02;97.57;;;31.70;;
21014;SDS011;19207;-23.482;-46.500;2022-09-02T07:25:48;103.40;;;29.35;;
21014;SDS011;19207;-23.482;-46.500;2022-09-02T07:28:35;104.00;;;33.67;;
21014;SDS011;19207;-23.482;-46.500;2022-09-02T07:31:22;108.22;;;31.95;;
21014;SDS011;19207;-23.482;-46.500;2022-09-02T07:34:09;122.05;;;39.63;;
21014;SDS011;19207;-23.482;-46.500;2022-09-02T07:36:56;132.50;;;40.50;;
21014;SDS011;19207;-23.482;-46.500;2022-09-02T07:39:43;128.20;;;40.25;;
21014;SDS011;19207;-23.482;-46.500;2022-09-02T07:42:30;144.75;;;42.50;;
21014;SDS011;19207;-23.482;-46.500;2022-09-02T07:45:17;133.77;;;41.50;;
21014;SDS011;19207;-23.482;-46.500;2022-09-02T07:48:04;137.37;;;38.45;;
21014;SDS011;19207;-23.482;-46.500;2022-09-02T07:50:52;122.22;;;36.33;;
21014;SDS011;19207;-23.482;-46.500;2022-09-02T07:53:38;110.47;;;35.67;;
21014;SDS011;19207;-23.482;-46.500;2022-09-02T07:56:25;119.35;;;34.92;;
21014;SDS011;19207;-23.482;-46.500;2022-09-02T07:59:11;114.55;;;33.90;;
21014;SDS011;19207;-23.482;-46.500;2022-09-02T08:01:58;123.03;;;34.90;;
21014;SDS011;19207;-23.482;-46.500;2022-09-02T08:04:45;100.97;;;31.25;;
21014;SDS011;19207;-23.482;-46.500;2022-09-02T08:07:32;104.75;;;31.55;;
21014;SDS011;19207;-23.482;-46.500;2022-09-02T08:10:19;91.50;;;31.02;;
21014;SDS011;19207;-23.482;-46.500;2022-09-02T08:13:11;93.25;;;29.92;;
21014;SDS011;19207;-23.482;-46.500;2022-09-02T08:15:58;98.72;;;30.30;;
21014;SDS011;19207;-23.482;-46.500;2022-09-02T08:18:45;81.87;;;26.58;;
21014;SDS011;19207;-23.482;-46.500;2022-09-02T08:21:33;79.35;;;27.15;;
21014;SDS011;19207;-23.482;-46.500;2022-09-02T08:24:20;82.28;;;28.52;;
21014;SDS011;19207;-23.482;-46.500;2022-09-02T08:27:07;77.70;;;27.02;;
21014;SDS011;19207;-23.482;-46.500;2022-09-02T08:29:54;82.70;;;27.77;;
21014;SDS011;19207;-23.482;-46.500;2022-09-02T08:32:40;83.05;;;25.92;;
21014;SDS011;19207;-23.482;-46.500;2022-09-02T08:35:27;84.43;;;25.15;;
21014;SDS011;19207;-23.482;-46.500;2022-09-02T08:38:14;72.93;;;25.02;;
21014;SDS011;19207;-23.482;-46.500;2022-09-02T08:41:00;84.03;;;25.20;;
21014;SDS011;19207;-23.482;-46.500;2022-09-02T08:43:47;73.82;;;24.35;;
21014;SDS011;19207;-23.482;-46.500;2022-09-02T08:46:34;64.12;;;22.50;;
21014;SDS011;19207;-23.482;-46.500;2022-09-02T08:49:26;57.08;;;22.15;;
21014;SDS011;19207;-23.482;-46.500;2022-09-02T08:55:32;59.63;;;20.25;;
21014;SDS011;19207;-23.482;-46.500;2022-09-02T08:58:21;57.28;;;20.92;;
21014;SDS011;19207;-23.482;-46.500;2022-09-02T09:19:05;56.30;;;22.23;;
21014;SDS011;19207;-23.482;-46.500;2022-09-02T09:21:48;57.15;;;21.25;;
21014;SDS011;19207;-23.482;-46.500;2022-09-02T09:24:37;64.87;;;20.65;;
21014;SDS011;19207;-23.482;-46.500;2022-09-02T09:27:24;52.17;;;20.23;;
21014;SDS011;19207;-23.482;-46.500;2022-09-02T09:30:11;62.55;;;19.02;;
21014;SDS011;19207;-23.482;-46.500;2022-09-02T09:32:58;54.40;;;20.23;;
21014;SDS011;19207;-23.482;-46.500;2022-09-02T09:35:52;53.38;;;20.27;;
21014;SDS011;19207;-23.482;-46.500;2022-09-02T09:38:40;49.92;;;20.85;;
21014;SDS011;19207;-23.482;-46.500;2022-09-02T09:41:27;48.70;;;18.10;;
21014;SDS011;19207;-23.482;-46.500;2022-09-02T09:47:17;68.18;;;24.10;;
21014;SDS011;19207;-23.482;-46.500;2022-09-02T09:50:16;47.58;;;21.45;;
21014;SDS011;19207;-23.482;-46.500;2022-09-02T09:56:23;63.40;;;18.10;;
21014;SDS011;19207;-23.482;-46.500;2022-09-02T09:59:29;54.55;;;19.15;;
21014;SDS011;19207;-23.482;-46.500;2022-09-02T10:02:22;60.63;;;20.70;;
21014;SDS011;19207;-23.482;-46.500;2022-09-02T10:05:30;57.40;;;19.45;;
21014;SDS011;19207;-23.482;-46.500;2022-09-02T10:11:04;56.50;;;21.40;;
21014;SDS011;19207;-23.482;-46.500;2022-09-02T10:13:54;58.25;;;23.05;;
21014;SDS011;19207;-23.482;-46.500;2022-09-02T10:19:38;61.03;;;21.12;;
21014;SDS011;19207;-23.482;-46.500;2022-09-02T10:31:36;56.22;;;19.00;;
21014;SDS011;19207;-23.482;-46.500;2022-09-02T10:37:26;52.80;;;17.85;;
21014;SDS011;19207;-23.482;-46.500;2022-09-02T10:40:29;63.55;;;19.27;;
21014;SDS011;19207;-23.482;-46.500;2022-09-02T10:46:26;53.22;;;18.25;;
21014;SDS011;19207;-23.482;-46.500;2022-09-02T10:52:19;54.75;;;17.02;;
21014;SDS011;19207;-23.482;-46.500;2022-09-02T10:58:02;51.78;;;15.85;;
21014;SDS011;19207;-23.482;-46.500;2022-09-02T11:00:52;51.28;;;15.57;;
21014;SDS011;19207;-23.482;-46.500;2022-09-02T11:03:43;58.38;;;16.92;;
21014;SDS011;19207;-23.482;-46.500;2022-09-02T11:06:34;53.67;;;18.33;;
21014;SDS011;19207;-23.482;-46.500;2022-09-02T11:12:14;57.13;;;18.62;;
21014;SDS011;19207;-23.482;-46.500;2022-09-02T11:15:14;60.75;;;20.85;;
21014;SDS011;19207;-23.482;-46.500;2022-09-02T11:18:06;60.12;;;20.90;;
21014;SDS011;19207;-23.482;-46.500;2022-09-02T11:30:12;54.17;;;18.23;;
21014;SDS011;19207;-23.482;-46.500;2022-09-02T11:33:09;71.37;;;17.75;;
21014;SDS011;19207;-23.482;-46.500;2022-09-02T11:35:57;64.37;;;18.35;;
21014;SDS011;19207;-23.482;-46.500;2022-09-02T11:38:46;67.28;;;18.58;;
21014;SDS011;19207;-23.482;-46.500;2022-09-02T11:41:44;48.55;;;16.62;;
21014;SDS011;19207;-23.482;-46.500;2022-09-02T11:47:40;46.90;;;15.88;;
21014;SDS011;19207;-23.482;-46.500;2022-09-02T11:58:59;43.70;;;13.55;;
21014;SDS011;19207;-23.482;-46.500;2022-09-02T12:01:50;37.83;;;13.38;;
21014;SDS011;19207;-23.482;-46.500;2022-09-02T12:04:38;37.50;;;13.05;;
21014;SDS011;19207;-23.482;-46.500;2022-09-02T12:07:25;37.03;;;12.40;;
21014;SDS011;19207;-23.482;-46.500;2022-09-02T12:10:33;49.85;;;14.23;;
21014;SDS011;19207;-23.482;-46.500;2022-09-02T12:13:38;37.70;;;13.50;;
21014;SDS011;19207;-23.482;-46.500;2022-09-02T12:25:04;31.30;;;8.05;;
21014;SDS011;19207;-23.482;-46.500;2022-09-02T12:33:47;25.27;;;7.90;;
21014;SDS011;19207;-23.482;-46.500;2022-09-02T12:42:23;27.90;;;7.45;;
21014;SDS011;19207;-23.482;-46.500;2022-09-02T12:45:14;20.30;;;5.70;;
21014;SDS011;19207;-23.482;-46.500;2022-09-02T12:48:10;27.13;;;5.97;;
21014;SDS011;19207;-23.482;-46.500;2022-09-02T12:50:58;14.98;;;5.15;;
21014;SDS011;19207;-23.482;-46.500;2022-09-02T12:53:48;19.23;;;5.40;;
21014;SDS011;19207;-23.482;-46.500;2022-09-02T12:56:36;18.77;;;5.90;;
21014;SDS011;19207;-23.482;-46.500;2022-09-02T12:59:29;52.25;;;7.32;;
21014;SDS011;19207;-23.482;-46.500;2022-09-02T13:14:04;19.83;;;5.45;;
21014;SDS011;19207;-23.482;-46.500;2022-09-02T13:17:03;14.55;;;5.40;;
21014;SDS011;19207;-23.482;-46.500;2022-09-02T13:31:24;10.30;;;3.65;;
21014;SDS011;19207;-23.482;-46.500;2022-09-02T13:34:12;10.32;;;3.72;;
21014;SDS011;19207;-23.482;-46.500;2022-09-02T13:36:58;12.43;;;3.83;;
21014;SDS011;19207;-23.482;-46.500;2022-09-02T13:39:45;32.58;;;4.55;;
21014;SDS011;19207;-23.482;-46.500;2022-09-02T13:42:33;13.75;;;3.53;;
21014;SDS011;19207;-23.482;-46.500;2022-09-02T13:45:20;10.02;;;3.92;;
21014;SDS011;19207;-23.482;-46.500;2022-09-02T13:48:09;11.52;;;3.92;;
21014;SDS011;19207;-23.482;-46.500;2022-09-02T13:51:08;10.48;;;3.55;;
21014;SDS011;19207;-23.482;-46.500;2022-09-02T13:53:57;13.05;;;3.75;;
21014;SDS011;19207;-23.482;-46.500;2022-09-02T13:56:44;13.45;;;4.47;;
21014;SDS011;19207;-23.482;-46.500;2022-09-02T13:59:32;12.70;;;3.70;;
21014;SDS011;19207;-23.482;-46.500;2022-09-02T14:02:29;13.80;;;4.12;;
21014;SDS011;19207;-23.482;-46.500;2022-09-02T14:05:19;9.48;;;4.00;;
21014;SDS011;19207;-23.482;-46.500;2022-09-02T14:08:06;17.67;;;3.90;;
21014;SDS011;19207;-23.482;-46.500;2022-09-02T14:10:54;13.85;;;4.05;;
21014;SDS011;19207;-23.482;-46.500;2022-09-02T14:13:43;34.95;;;4.55;;
21014;SDS011;19207;-23.482;-46.500;2022-09-02T14:16:33;12.40;;;4.43;;
21014;SDS011;19207;-23.482;-46.500;2022-09-02T14:22:06;15.63;;;4.12;;
21014;SDS011;19207;-23.482;-46.500;2022-09-02T14:25:13;13.43;;;4.43;;
21014;SDS011;19207;-23.482;-46.500;2022-09-02T14:28:00;17.83;;;4.35;;
21014;SDS011;19207;-23.482;-46.500;2022-09-02T14:30:57;8.85;;;4.43;;
21014;SDS011;19207;-23.482;-46.500;2022-09-02T14:33:44;15.98;;;4.95;;
21014;SDS011;19207;-23.482;-46.500;2022-09-02T14:36:34;20.27;;;4.50;;
21014;SDS011;19207;-23.482;-46.500;2022-09-02T14:39:21;12.23;;;4.70;;
21014;SDS011;19207;-23.482;-46.500;2022-09-02T14:42:08;13.60;;;4.37;;
21014;SDS011;19207;-23.482;-46.500;2022-09-02T14:44:54;15.00;;;5.43;;
21014;SDS011;19207;-23.482;-46.500;2022-09-02T14:47:43;11.95;;;4.75;;
21014;SDS011;19207;-23.482;-46.500;2022-09-02T14:50:30;11.98;;;4.90;;
21014;SDS011;19207;-23.482;-46.500;2022-09-02T14:53:20;21.85;;;5.15;;
21014;SDS011;19207;-23.482;-46.500;2022-09-02T14:56:07;11.45;;;4.70;;
21014;SDS011;19207;-23.482;-46.500;2022-09-02T14:58:53;15.68;;;5.03;;
21014;SDS011;19207;-23.482;-46.500;2022-09-02T15:01:46;18.20;;;5.15;;
21014;SDS011;19207;-23.482;-46.500;2022-09-02T15:04:34;15.32;;;5.32;;
21014;SDS011;19207;-23.482;-46.500;2022-09-02T15:07:21;20.60;;;5.50;;
21014;SDS011;19207;-23.482;-46.500;2022-09-02T15:10:08;14.20;;;5.07;;
21014;SDS011;19207;-23.482;-46.500;2022-09-02T15:12:55;11.48;;;4.82;;
21014;SDS011;19207;-23.482;-46.500;2022-09-02T15:15:42;20.48;;;5.72;;
21014;SDS011;19207;-23.482;-46.500;2022-09-02T15:18:29;10.90;;;4.80;;
21014;SDS011;19207;-23.482;-46.500;2022-09-02T15:21:15;13.82;;;5.03;;
21014;SDS011;19207;-23.482;-46.500;2022-09-02T15:24:03;8.50;;;4.43;;
21014;SDS011;19207;-23.482;-46.500;2022-09-02T15:26:49;14.15;;;5.43;;
21014;SDS011;19207;-23.482;-46.500;2022-09-02T15:29:36;16.10;;;5.00;;
21014;SDS011;19207;-23.482;-46.500;2022-09-02T15:32:24;13.38;;;4.72;;
21014;SDS011;19207;-23.482;-46.500;2022-09-02T15:35:10;19.33;;;5.32;;
21014;SDS011;19207;-23.482;-46.500;2022-09-02T15:37:57;20.17;;;4.87;;
21014;SDS011;19207;-23.482;-46.500;2022-09-02T15:40:43;25.73;;;4.93;;
21014;SDS011;19207;-23.482;-46.500;2022-09-02T15:43:30;16.05;;;4.78;;
21014;SDS011;19207;-23.482;-46.500;2022-09-02T15:46:19;12.75;;;4.82;;
21014;SDS011;19207;-23.482;-46.500;2022-09-02T15:49:06;20.05;;;5.22;;
21014;SDS011;19207;-23.482;-46.500;2022-09-02T15:51:52;17.80;;;4.70;;
21014;SDS011;19207;-23.482;-46.500;2022-09-02T15:54:39;20.45;;;5.10;;
21014;SDS011;19207;-23.482;-46.500;2022-09-02T15:57:25;9.77;;;5.30;;
21014;SDS011;19207;-23.482;-46.500;2022-09-02T16:00:13;22.45;;;5.70;;
21014;SDS011;19207;-23.482;-46.500;2022-09-02T16:03:00;27.75;;;5.10;;
21014;SDS011;19207;-23.482;-46.500;2022-09-02T16:05:47;13.90;;;5.22;;
21014;SDS011;19207;-23.482;-46.500;2022-09-02T16:08:34;13.18;;;5.07;;
21014;SDS011;19207;-23.482;-46.500;2022-09-02T16:11:20;18.27;;;5.20;;
21014;SDS011;19207;-23.482;-46.500;2022-09-02T16:14:08;14.02;;;4.80;;
21014;SDS011;19207;-23.482;-46.500;2022-09-02T16:16:54;16.27;;;4.95;;
21014;SDS011;19207;-23.482;-46.500;2022-09-02T16:19:41;9.73;;;4.70;;
21014;SDS011;19207;-23.482;-46.500;2022-09-02T16:22:27;12.63;;;4.57;;
21014;SDS011;19207;-23.482;-46.500;2022-09-02T16:25:14;13.30;;;4.60;;
21014;SDS011;19207;-23.482;-46.500;2022-09-02T16:28:00;14.48;;;4.57;;
21014;SDS011;19207;-23.482;-46.500;2022-09-02T16:30:47;19.77;;;4.55;;
21014;SDS011;19207;-23.482;-46.500;2022-09-02T16:33:33;16.08;;;5.28;;
21014;SDS011;19207;-23.482;-46.500;2022-09-02T16:36:21;15.82;;;4.87;;
21014;SDS011;19207;-23.482;-46.500;2022-09-02T16:39:07;15.50;;;5.25;;
21014;SDS011;19207;-23.482;-46.500;2022-09-02T16:41:55;10.65;;;4.65;;
21014;SDS011;19207;-23.482;-46.500;2022-09-02T16:44:42;15.18;;;5.12;;
21014;SDS011;19207;-23.482;-46.500;2022-09-02T16:47:28;9.77;;;4.53;;
21014;SDS011;19207;-23.482;-46.500;2022-09-02T16:50:15;13.02;;;4.97;;
21014;SDS011;19207;-23.482;-46.500;2022-09-02T16:53:03;14.57;;;5.03;;
21014;SDS011;19207;-23.482;-46.500;2022-09-02T16:55:49;13.93;;;6.47;;
21014;SDS011;19207;-23.482;-46.500;2022-09-02T16:58:36;10.40;;;4.97;;
21014;SDS011;19207;-23.482;-46.500;2022-09-02T17:01:22;19.90;;;5.07;;
21014;SDS011;19207;-23.482;-46.500;2022-09-02T17:04:09;10.00;;;5.22;;
21014;SDS011;19207;-23.482;-46.500;2022-09-02T17:06:55;22.10;;;5.68;;
21014;SDS011;19207;-23.482;-46.500;2022-09-02T17:09:42;12.02;;;5.53;;
21014;SDS011;19207;-23.482;-46.500;2022-09-02T17:12:29;17.67;;;5.12;;
21014;SDS011;19207;-23.482;-46.500;2022-09-02T17:15:15;11.18;;;4.60;;
21014;SDS011;19207;-23.482;-46.500;2022-09-02T17:18:02;11.82;;;5.12;;
21014;SDS011;19207;-23.482;-46.500;2022-09-02T17:20:48;13.68;;;5.18;;
21014;SDS011;19207;-23.482;-46.500;2022-09-02T17:23:35;22.37;;;4.95;;
21014;SDS011;19207;-23.482;-46.500;2022-09-02T17:26:22;17.65;;;5.03;;
21014;SDS011;19207;-23.482;-46.500;2022-09-02T17:29:11;20.20;;;5.57;;
21014;SDS011;19207;-23.482;-46.500;2022-09-02T17:32:00;13.32;;;5.35;;
21014;SDS011;19207;-23.482;-46.500;2022-09-02T17:34:47;12.65;;;5.30;;
21014;SDS011;19207;-23.482;-46.500;2022-09-02T17:37:35;16.15;;;5.07;;
21014;SDS011;19207;-23.482;-46.500;2022-09-02T17:40:21;12.77;;;5.30;;
21014;SDS011;19207;-23.482;-46.500;2022-09-02T17:43:28;13.18;;;4.60;;
21014;SDS011;19207;-23.482;-46.500;2022-09-02T17:46:15;12.10;;;5.25;;
21014;SDS011;19207;-23.482;-46.500;2022-09-02T17:49:03;18.75;;;5.40;;